SFO weather

San Francisco International Airport
San Francisco, California, United States

Public forecast

Using degrees Fahrenheit for public forecast. Weather courtesy of forecast.io.

METAR (pilot weather report)

Retrieved 2017/09/22 00:56 UTC (44 minutes ago):

KSFO 220056Z 27024G31KT 10SM FEW020 FEW030 SCT200 17/10 A2989 RMK AO2 PK WND 27038/0004 SLP122 T01720100

TAF (pilot weather forecast)

Forecast is more than 12 hours old.

Retrieved 2017/09/21 00:42 UTC (1 day ago):

TAF KSFO 212341Z 2200/2306 27023G33KT P6SM FEW020 SCT200 FM220400 27017G24KT P6SM FEW020 FM220600 27013KT P6SM FEW015 FEW030 FM221300 26007KT P6SM FEW015 FEW025 SCT035 TEMPO 2213/2217 SCT022 BKN030 FM221800 29007KT P6SM FEW035 FM222200 28015KT P6SM SKC FM230400 27008KT P6SM SKC